sensor_id;sensor_type;location;lat;lon;timestamp;pressure;altitude;pressure_sealevel;temperature;humidity
22872;BME280;11603;44.910;8.630;2023-05-16T00:01:29;99648.94;;;17.95;100.00
22872;BME280;11603;44.910;8.630;2023-05-16T00:03:55;99649.09;;;17.93;100.00
22872;BME280;11603;44.910;8.630;2023-05-16T00:06:21;99645.88;;;17.90;100.00
22872;BME280;11603;44.910;8.630;2023-05-16T00:08:47;99645.03;;;17.89;100.00
22872;BME280;11603;44.910;8.630;2023-05-16T00:11:13;99643.50;;;17.87;100.00
22872;BME280;11603;44.910;8.630;2023-05-16T00:13:38;99645.34;;;17.86;100.00
22872;BME280;11603;44.910;8.630;2023-05-16T00:16:07;99647.53;;;17.83;100.00
22872;BME280;11603;44.910;8.630;2023-05-16T00:18:33;99648.72;;;17.80;100.00
22872;BME280;11603;44.910;8.630;2023-05-16T00:21:02;99634.69;;;17.76;100.00
22872;BME280;11603;44.910;8.630;2023-05-16T00:23:29;99638.88;;;17.63;100.00
22872;BME280;11603;44.910;8.630;2023-05-16T00:25:55;99646.13;;;17.62;100.00
22872;BME280;11603;44.910;8.630;2023-05-16T00:28:20;99639.53;;;17.65;100.00
22872;BME280;11603;44.910;8.630;2023-05-16T00:30:46;99642.09;;;17.66;100.00
22872;BME280;11603;44.910;8.630;2023-05-16T00:33:11;99631.75;;;17.62;100.00
22872;BME280;11603;44.910;8.630;2023-05-16T00:35:37;99631.91;;;17.60;100.00
22872;BME280;11603;44.910;8.630;2023-05-16T00:38:02;99624.25;;;17.56;100.00
22872;BME280;11603;44.910;8.630;2023-05-16T00:40:28;99624.41;;;17.54;100.00
22872;BME280;11603;44.910;8.630;2023-05-16T00:42:53;99620.03;;;17.53;100.00
22872;BME280;11603;44.910;8.630;2023-05-16T00:45:19;99616.50;;;17.53;100.00
22872;BME280;11603;44.910;8.630;2023-05-16T00:47:44;99613.25;;;17.49;100.00
22872;BME280;11603;44.910;8.630;2023-05-16T00:50:11;99617.13;;;17.47;100.00
22872;BME280;11603;44.910;8.630;2023-05-16T00:52:36;99607.47;;;17.44;100.00
22872;BME280;11603;44.910;8.630;2023-05-16T00:55:02;99608.91;;;17.22;100.00
22872;BME280;11603;44.910;8.630;2023-05-16T00:57:28;99610.50;;;17.07;100.00
22872;BME280;11603;44.910;8.630;2023-05-16T00:59:54;99617.09;;;17.05;100.00
22872;BME280;11603;44.910;8.630;2023-05-16T01:02:19;99604.06;;;17.00;100.00
22872;BME280;11603;44.910;8.630;2023-05-16T01:04:46;99611.75;;;16.87;100.00
22872;BME280;11603;44.910;8.630;2023-05-16T01:07:12;99600.53;;;16.74;100.00
22872;BME280;11603;44.910;8.630;2023-05-16T01:09:39;99596.44;;;16.70;100.00
22872;BME280;11603;44.910;8.630;2023-05-16T01:12:25;99594.22;;;16.65;100.00
22872;BME280;11603;44.910;8.630;2023-05-16T01:15:14;99598.16;;;16.53;100.00
22872;BME280;11603;44.910;8.630;2023-05-16T01:17:56;99591.59;;;16.56;100.00
22872;BME280;11603;44.910;8.630;2023-05-16T01:20:36;99585.53;;;16.53;100.00
22872;BME280;11603;44.910;8.630;2023-05-16T01:28:43;99586.44;;;16.62;100.00
22872;BME280;11603;44.910;8.630;2023-05-16T01:31:10;99590.44;;;16.58;100.00
22872;BME280;11603;44.910;8.630;2023-05-16T01:33:35;99589.00;;;16.64;100.00
22872;BME280;11603;44.910;8.630;2023-05-16T01:36:18;99590.88;;;16.71;100.00
22872;BME280;11603;44.910;8.630;2023-05-16T01:38:58;99594.19;;;16.83;100.00
22872;BME280;11603;44.910;8.630;2023-05-16T01:47:15;99579.59;;;16.76;100.00
22872;BME280;11603;44.910;8.630;2023-05-16T01:50:13;99587.56;;;16.77;100.00
22872;BME280;11603;44.910;8.630;2023-05-16T01:52:55;99579.72;;;16.66;100.00
22872;BME280;11603;44.910;8.630;2023-05-16T01:55:38;99582.75;;;16.63;100.00
22872;BME280;11603;44.910;8.630;2023-05-16T01:58:06;99581.75;;;16.64;100.00
22872;BME280;11603;44.910;8.630;2023-05-16T02:00:33;99580.78;;;16.56;100.00
22872;BME280;11603;44.910;8.630;2023-05-16T02:02:58;99581.66;;;16.38;100.00
22872;BME280;11603;44.910;8.630;2023-05-16T02:05:24;99583.16;;;16.33;100.00
22872;BME280;11603;44.910;8.630;2023-05-16T02:07:49;99579.44;;;16.34;100.00
22872;BME280;11603;44.910;8.630;2023-05-16T02:10:15;99587.25;;;16.19;100.00
22872;BME280;11603;44.910;8.630;2023-05-16T02:12:40;99582.22;;;16.24;100.00
22872;BME280;11603;44.910;8.630;2023-05-16T02:15:06;99587.16;;;16.29;100.00
22872;BME280;11603;44.910;8.630;2023-05-16T02:17:32;99589.28;;;16.17;100.00
22872;BME280;11603;44.910;8.630;2023-05-16T02:19:58;99576.16;;;15.87;100.00
22872;BME280;11603;44.910;8.630;2023-05-16T02:22:26;99578.78;;;15.79;100.00
22872;BME280;11603;44.910;8.630;2023-05-16T02:24:52;99576.94;;;15.79;100.00
22872;BME280;11603;44.910;8.630;2023-05-16T02:27:18;99579.78;;;15.78;100.00
22872;BME280;11603;44.910;8.630;2023-05-16T02:29:43;99579.78;;;15.78;100.00
22872;BME280;11603;44.910;8.630;2023-05-16T02:32:09;99579.91;;;15.76;100.00
22872;BME280;11603;44.910;8.630;2023-05-16T02:34:34;99584.47;;;15.76;100.00
22872;BME280;11603;44.910;8.630;2023-05-16T02:37:00;99571.69;;;15.78;100.00
22872;BME280;11603;44.910;8.630;2023-05-16T02:39:25;99577.53;;;15.73;100.00
22872;BME280;11603;44.910;8.630;2023-05-16T02:41:51;99576.75;;;15.81;100.00
22872;BME280;11603;44.910;8.630;2023-05-16T02:44:17;99569.38;;;15.83;100.00
22872;BME280;11603;44.910;8.630;2023-05-16T02:46:42;99570.09;;;15.85;100.00
22872;BME280;11603;44.910;8.630;2023-05-16T02:49:08;99567.69;;;15.82;100.00
22872;BME280;11603;44.910;8.630;2023-05-16T02:51:34;99544.03;;;15.76;100.00
22872;BME280;11603;44.910;8.630;2023-05-16T02:53:59;99546.66;;;15.67;100.00
22872;BME280;11603;44.910;8.630;2023-05-16T02:56:25;99557.66;;;15.56;100.00
22872;BME280;11603;44.910;8.630;2023-05-16T02:58:52;99551.97;;;15.59;100.00
22872;BME280;11603;44.910;8.630;2023-05-16T03:01:18;99548.81;;;15.64;100.00
22872;BME280;11603;44.910;8.630;2023-05-16T03:03:44;99538.50;;;15.59;100.00
22872;BME280;11603;44.910;8.630;2023-05-16T03:06:09;99530.16;;;15.53;100.00
22872;BME280;11603;44.910;8.630;2023-05-16T03:08:35;99526.66;;;15.43;100.00
22872;BME280;11603;44.910;8.630;2023-05-16T03:11:01;99538.56;;;15.22;100.00
22872;BME280;11603;44.910;8.630;2023-05-16T03:13:26;99527.81;;;15.13;100.00
22872;BME280;11603;44.910;8.630;2023-05-16T03:15:53;99527.66;;;15.14;100.00
22872;BME280;11603;44.910;8.630;2023-05-16T03:18:18;99529.50;;;15.14;100.00
22872;BME280;11603;44.910;8.630;2023-05-16T03:20:44;99530.22;;;15.16;100.00
22872;BME280;11603;44.910;8.630;2023-05-16T03:23:10;99530.69;;;15.11;100.00
22872;BME280;11603;44.910;8.630;2023-05-16T03:25:36;99536.59;;;15.15;100.00
22872;BME280;11603;44.910;8.630;2023-05-16T03:28:02;99541.91;;;15.07;100.00
22872;BME280;11603;44.910;8.630;2023-05-16T03:30:27;99539.09;;;14.99;100.00
22872;BME280;11603;44.910;8.630;2023-05-16T03:32:54;99530.78;;;14.82;100.00
22872;BME280;11603;44.910;8.630;2023-05-16T03:35:19;99531.91;;;14.90;100.00
22872;BME280;11603;44.910;8.630;2023-05-16T03:37:45;99543.81;;;14.87;100.00
22872;BME280;11603;44.910;8.630;2023-05-16T03:40:11;99536.94;;;14.75;100.00
22872;BME280;11603;44.910;8.630;2023-05-16T03:42:36;99533.56;;;14.63;100.00
22872;BME280;11603;44.910;8.630;2023-05-16T03:45:04;99530.34;;;14.60;100.00
22872;BME280;11603;44.910;8.630;2023-05-16T03:47:29;99533.03;;;14.50;100.00
22872;BME280;11603;44.910;8.630;2023-05-16T03:49:56;99522.00;;;14.53;100.00
22872;BME280;11603;44.910;8.630;2023-05-16T03:52:22;99528.50;;;14.51;100.00
22872;BME280;11603;44.910;8.630;2023-05-16T03:54:47;99521.84;;;14.45;100.00
22872;BME280;11603;44.910;8.630;2023-05-16T03:57:13;99530.91;;;14.34;100.00
22872;BME280;11603;44.910;8.630;2023-05-16T03:59:38;99531.53;;;14.38;100.00
22872;BME280;11603;44.910;8.630;2023-05-16T04:02:05;99517.31;;;14.36;100.00
22872;BME280;11603;44.910;8.630;2023-05-16T04:04:30;99521.84;;;14.35;100.00
22872;BME280;11603;44.910;8.630;2023-05-16T04:06:56;99522.47;;;14.39;100.00
22872;BME280;11603;44.910;8.630;2023-05-16T04:09:21;99515.38;;;14.28;100.00
22872;BME280;11603;44.910;8.630;2023-05-16T04:11:47;99513.41;;;14.21;100.00
22872;BME280;11603;44.910;8.630;2023-05-16T04:14:14;99517.13;;;14.00;100.00
22872;BME280;11603;44.910;8.630;2023-05-16T04:16:40;99510.44;;;14.05;100.00
22872;BME280;11603;44.910;8.630;2023-05-16T04:19:06;99501.41;;;13.96;100.00
22872;BME280;11603;44.910;8.630;2023-05-16T04:21:31;99494.22;;;13.87;100.00
22872;BME280;11603;44.910;8.630;2023-05-16T04:23:57;99489.97;;;13.84;100.00
22872;BME280;11603;44.910;8.630;2023-05-16T04:26:22;99499.75;;;13.76;100.00
22872;BME280;11603;44.910;8.630;2023-05-16T04:28:49;99503.69;;;13.81;100.00
22872;BME280;11603;44.910;8.630;2023-05-16T04:31:15;99494.91;;;13.79;100.00
22872;BME280;11603;44.910;8.630;2023-05-16T04:33:40;99501.69;;;13.83;100.00
22872;BME280;11603;44.910;8.630;2023-05-16T04:36:06;99499.72;;;13.85;100.00
22872;BME280;11603;44.910;8.630;2023-05-16T04:38:32;99494.91;;;13.89;100.00
22872;BME280;11603;44.910;8.630;2023-05-16T04:40:58;99490.81;;;13.85;100.00
22872;BME280;11603;44.910;8.630;2023-05-16T04:43:23;99496.31;;;13.83;100.00
22872;BME280;11603;44.910;8.630;2023-05-16T04:45:49;99501.00;;;13.91;100.00
22872;BME280;11603;44.910;8.630;2023-05-16T04:48:15;99503.38;;;13.94;100.00
22872;BME280;11603;44.910;8.630;2023-05-16T04:50:40;99500.13;;;14.00;100.00
22872;BME280;11603;44.910;8.630;2023-05-16T04:53:06;99506.22;;;14.02;100.00
22872;BME280;11603;44.910;8.630;2023-05-16T04:55:32;99507.31;;;14.09;100.00
22872;BME280;11603;44.910;8.630;2023-05-16T04:57:57;99505.34;;;14.11;100.00
22872;BME280;11603;44.910;8.630;2023-05-16T05:00:23;99509.75;;;14.12;100.00
22872;BME280;11603;44.910;8.630;2023-05-16T05:02:48;99507.59;;;14.16;100.00
22872;BME280;11603;44.910;8.630;2023-05-16T05:05:14;99507.88;;;14.22;100.00
22872;BME280;11603;44.910;8.630;2023-05-16T05:07:39;99506.16;;;14.40;100.00
22872;BME280;11603;44.910;8.630;2023-05-16T05:10:05;99512.09;;;14.54;100.00
22872;BME280;11603;44.910;8.630;2023-05-16T05:12:32;99511.09;;;14.55;100.00
22872;BME280;11603;44.910;8.630;2023-05-16T05:14:58;99512.31;;;14.60;100.00
22872;BME280;11603;44.910;8.630;2023-05-16T05:17:23;99515.00;;;14.60;100.00
22872;BME280;11603;44.910;8.630;2023-05-16T05:19:49;99517.66;;;14.79;100.00
22872;BME280;11603;44.910;8.630;2023-05-16T05:22:14;99523.84;;;14.90;100.00
22872;BME280;11603;44.910;8.630;2023-05-16T05:24:40;99509.88;;;15.04;100.00
22872;BME280;11603;44.910;8.630;2023-05-16T05:27:05;99508.94;;;14.95;100.00
22872;BME280;11603;44.910;8.630;2023-05-16T05:29:31;99502.84;;;14.93;100.00
22872;BME280;11603;44.910;8.630;2023-05-16T05:31:56;99501.84;;;14.94;100.00
22872;BME280;11603;44.910;8.630;2023-05-16T05:34:22;99501.59;;;14.88;100.00
22872;BME280;11603;44.910;8.630;2023-05-16T05:36:48;99500.94;;;15.03;100.00
22872;BME280;11603;44.910;8.630;2023-05-16T05:39:13;99496.94;;;15.07;100.00
22872;BME280;11603;44.910;8.630;2023-05-16T05:41:39;99500.19;;;15.11;100.00
22872;BME280;11603;44.910;8.630;2023-05-16T05:44:05;99496.72;;;15.01;100.00
22872;BME280;11603;44.910;8.630;2023-05-16T05:46:31;99508.78;;;14.97;100.00
22872;BME280;11603;44.910;8.630;2023-05-16T05:48:58;99506.50;;;14.92;100.00
22872;BME280;11603;44.910;8.630;2023-05-16T05:51:24;99498.63;;;14.91;100.00
22872;BME280;11603;44.910;8.630;2023-05-16T05:53:51;99501.03;;;14.84;100.00
22872;BME280;11603;44.910;8.630;2023-05-16T05:56:16;99509.06;;;14.94;100.00
22872;BME280;11603;44.910;8.630;2023-05-16T05:58:41;99502.56;;;14.96;100.00
22872;BME280;11603;44.910;8.630;2023-05-16T06:01:10;99503.16;;;14.90;100.00
22872;BME280;11603;44.910;8.630;2023-05-16T06:03:35;99500.34;;;14.82;100.00
22872;BME280;11603;44.910;8.630;2023-05-16T06:06:01;99502.78;;;14.75;100.00
22872;BME280;11603;44.910;8.630;2023-05-16T06:08:26;99507.69;;;14.90;100.00
22872;BME280;11603;44.910;8.630;2023-05-16T06:10:51;99507.59;;;14.72;100.00
22872;BME280;11603;44.910;8.630;2023-05-16T06:13:17;99513.97;;;14.71;100.00
22872;BME280;11603;44.910;8.630;2023-05-16T06:15:42;99496.03;;;14.62;100.00
22872;BME280;11603;44.910;8.630;2023-05-16T06:18:08;99497.88;;;14.61;100.00
22872;BME280;11603;44.910;8.630;2023-05-16T06:20:33;99487.28;;;14.60;100.00
22872;BME280;11603;44.910;8.630;2023-05-16T06:22:59;99483.56;;;14.61;100.00
22872;BME280;11603;44.910;8.630;2023-05-16T06:25:24;99487.47;;;14.76;100.00
22872;BME280;11603;44.910;8.630;2023-05-16T06:27:50;99485.81;;;14.93;100.00
22872;BME280;11603;44.910;8.630;2023-05-16T06:30:16;99477.34;;;15.15;100.00
22872;BME280;11603;44.910;8.630;2023-05-16T06:32:41;99478.22;;;15.33;100.00
22872;BME280;11603;44.910;8.630;2023-05-16T06:35:07;99472.06;;;15.41;100.00
22872;BME280;11603;44.910;8.630;2023-05-16T06:37:33;99471.97;;;15.50;100.00
22872;BME280;11603;44.910;8.630;2023-05-16T06:39:59;99473.72;;;15.51;100.00
22872;BME280;11603;44.910;8.630;2023-05-16T06:42:24;99467.19;;;15.26;100.00
22872;BME280;11603;44.910;8.630;2023-05-16T06:44:51;99464.94;;;15.04;100.00
22872;BME280;11603;44.910;8.630;2023-05-16T06:47:16;99469.84;;;15.09;100.00
22872;BME280;11603;44.910;8.630;2023-05-16T06:49:41;99463.16;;;15.13;100.00
22872;BME280;11603;44.910;8.630;2023-05-16T06:52:07;99471.13;;;15.32;100.00
22872;BME280;11603;44.910;8.630;2023-05-16T06:54:32;99463.25;;;15.39;100.00
22872;BME280;11603;44.910;8.630;2023-05-16T06:56:58;99467.19;;;15.44;100.00
22872;BME280;11603;44.910;8.630;2023-05-16T06:59:23;99466.66;;;15.41;100.00
22872;BME280;11603;44.910;8.630;2023-05-16T07:01:49;99460.38;;;15.32;100.00
22872;BME280;11603;44.910;8.630;2023-05-16T07:04:14;99458.59;;;15.41;100.00
22872;BME280;11603;44.910;8.630;2023-05-16T07:06:40;99463.81;;;15.24;100.00
22872;BME280;11603;44.910;8.630;2023-05-16T07:09:05;99472.41;;;15.10;100.00
22872;BME280;11603;44.910;8.630;2023-05-16T07:11:31;99473.13;;;15.12;100.00
22872;BME280;11603;44.910;8.630;2023-05-16T07:13:56;99482.38;;;15.27;100.00
22872;BME280;11603;44.910;8.630;2023-05-16T07:16:22;99485.88;;;15.55;100.00
22872;BME280;11603;44.910;8.630;2023-05-16T07:18:48;99485.94;;;15.81;100.00
22872;BME280;11603;44.910;8.630;2023-05-16T07:21:13;99486.78;;;15.99;100.00
22872;BME280;11603;44.910;8.630;2023-05-16T07:23:39;99483.19;;;16.17;100.00
22872;BME280;11603;44.910;8.630;2023-05-16T07:26:05;99479.41;;;16.27;100.00
22872;BME280;11603;44.910;8.630;2023-05-16T07:28:31;99473.03;;;16.36;100.00
22872;BME280;11603;44.910;8.630;2023-05-16T07:30:56;99469.72;;;16.42;100.00
22872;BME280;11603;44.910;8.630;2023-05-16T07:33:23;99474.50;;;16.57;100.00
22872;BME280;11603;44.910;8.630;2023-05-16T07:35:49;99468.16;;;16.40;100.00
22872;BME280;11603;44.910;8.630;2023-05-16T07:38:14;99454.75;;;16.56;100.00
22872;BME280;11603;44.910;8.630;2023-05-16T07:40:40;99456.56;;;16.73;100.00
22872;BME280;11603;44.910;8.630;2023-05-16T07:43:05;99455.50;;;16.66;100.00
22872;BME280;11603;44.910;8.630;2023-05-16T07:45:31;99459.25;;;16.73;100.00
22872;BME280;11603;44.910;8.630;2023-05-16T07:47:56;99456.84;;;16.62;100.00
22872;BME280;11603;44.910;8.630;2023-05-16T07:50:22;99455.44;;;16.84;100.00
22872;BME280;11603;44.910;8.630;2023-05-16T07:52:47;99452.31;;;16.71;100.00
22872;BME280;11603;44.910;8.630;2023-05-16T07:55:13;99453.16;;;16.63;100.00
22872;BME280;11603;44.910;8.630;2023-05-16T07:57:39;99453.94;;;16.89;100.00
22872;BME280;11603;44.910;8.630;2023-05-16T08:00:05;99445.50;;;16.92;100.00
22872;BME280;11603;44.910;8.630;2023-05-16T08:02:37;99441.34;;;17.14;100.00
22872;BME280;11603;44.910;8.630;2023-05-16T08:05:03;99441.03;;;17.33;100.00
22872;BME280;11603;44.910;8.630;2023-05-16T08:07:28;99438.00;;;17.36;100.00
22872;BME280;11603;44.910;8.630;2023-05-16T08:09:53;99441.75;;;17.52;100.00
22872;BME280;11603;44.910;8.630;2023-05-16T08:12:19;99441.78;;;17.68;100.00
22872;BME280;11603;44.910;8.630;2023-05-16T08:14:44;99450.06;;;17.91;100.00
22872;BME280;11603;44.910;8.630;2023-05-16T08:17:10;99446.69;;;18.05;100.00
22872;BME280;11603;44.910;8.630;2023-05-16T08:19:35;99444.28;;;18.18;100.00
22872;BME280;11603;44.910;8.630;2023-05-16T08:22:01;99451.56;;;18.26;100.00
22872;BME280;11603;44.910;8.630;2023-05-16T08:24:27;99456.63;;;18.37;100.00
22872;BME280;11603;44.910;8.630;2023-05-16T08:26:52;99460.66;;;18.41;100.00
22872;BME280;11603;44.910;8.630;2023-05-16T08:29:18;99467.06;;;18.48;100.00
22872;BME280;11603;44.910;8.630;2023-05-16T08:31:43;99476.91;;;18.57;100.00
22872;BME280;11603;44.910;8.630;2023-05-16T08:34:09;99483.50;;;18.63;100.00
22872;BME280;11603;44.910;8.630;2023-05-16T08:36:35;99481.78;;;18.61;100.00
22872;BME280;11603;44.910;8.630;2023-05-16T08:39:01;99487.03;;;18.63;100.00
22872;BME280;11603;44.910;8.630;2023-05-16T08:41:27;99472.50;;;18.40;100.00
22872;BME280;11603;44.910;8.630;2023-05-16T08:43:53;99476.22;;;18.39;100.00
22872;BME280;11603;44.910;8.630;2023-05-16T08:46:21;99473.50;;;18.39;100.00
22872;BME280;11603;44.910;8.630;2023-05-16T08:51:32;99473.78;;;18.76;100.00
22872;BME280;11603;44.910;8.630;2023-05-16T08:54:06;99480.19;;;18.83;100.00
22872;BME280;11603;44.910;8.630;2023-05-16T08:56:35;99476.97;;;18.88;100.00
22872;BME280;11603;44.910;8.630;2023-05-16T08:59:01;99467.63;;;18.90;100.00
22872;BME280;11603;44.910;8.630;2023-05-16T09:01:27;99472.00;;;18.99;100.00
22872;BME280;11603;44.910;8.630;2023-05-16T09:03:54;99474.19;;;19.04;100.00
22872;BME280;11603;44.910;8.630;2023-05-16T09:06:20;99467.28;;;19.24;100.00
22872;BME280;11603;44.910;8.630;2023-05-16T09:08:46;99474.88;;;19.29;100.00
22872;BME280;11603;44.910;8.630;2023-05-16T09:11:11;99470.63;;;19.34;100.00
22872;BME280;11603;44.910;8.630;2023-05-16T09:13:38;99472.44;;;19.42;100.00
22872;BME280;11603;44.910;8.630;2023-05-16T09:16:08;99472.44;;;19.42;100.00
22872;BME280;11603;44.910;8.630;2023-05-16T09:18:34;99475.97;;;19.51;100.00
22872;BME280;11603;44.910;8.630;2023-05-16T09:21:03;99476.59;;;19.61;100.00
22872;BME280;11603;44.910;8.630;2023-05-16T09:23:29;99469.53;;;19.74;100.00
22872;BME280;11603;44.910;8.630;2023-05-16T09:25:56;99473.81;;;19.92;100.00
22872;BME280;11603;44.910;8.630;2023-05-16T09:28:22;99463.78;;;19.92;100.00
22872;BME280;11603;44.910;8.630;2023-05-16T09:30:51;99468.69;;;19.97;100.00
22872;BME280;11603;44.910;8.630;2023-05-16T09:33:17;99466.94;;;20.04;100.00
22872;BME280;11603;44.910;8.630;2023-05-16T09:35:42;99469.16;;;20.00;100.00
22872;BME280;11603;44.910;8.630;2023-05-16T09:38:16;99470.28;;;20.06;100.00
22872;BME280;11603;44.910;8.630;2023-05-16T09:40:42;99468.66;;;20.19;100.00
22872;BME280;11603;44.910;8.630;2023-05-16T09:43:08;99473.41;;;20.17;100.00
22872;BME280;11603;44.910;8.630;2023-05-16T09:45:35;99477.59;;;20.05;100.00
22872;BME280;11603;44.910;8.630;2023-05-16T09:48:05;99479.00;;;20.16;100.00
22872;BME280;11603;44.910;8.630;2023-05-16T09:50:32;99469.72;;;20.48;100.00
22872;BME280;11603;44.910;8.630;2023-05-16T09:52:58;99469.00;;;20.39;100.00
22872;BME280;11603;44.910;8.630;2023-05-16T09:55:24;99476.41;;;20.22;100.00
22872;BME280;11603;44.910;8.630;2023-05-16T09:57:49;99476.78;;;20.19;100.00
22872;BME280;11603;44.910;8.630;2023-05-16T10:00:16;99481.66;;;20.24;100.00
22872;BME280;11603;44.910;8.630;2023-05-16T10:02:42;99485.47;;;20.38;100.00
22872;BME280;11603;44.910;8.630;2023-05-16T10:05:08;99491.31;;;20.26;100.00
22872;BME280;11603;44.910;8.630;2023-05-16T10:07:33;99490.25;;;20.13;100.00
22872;BME280;11603;44.910;8.630;2023-05-16T10:10:04;99484.28;;;20.17;100.00
22872;BME280;11603;44.910;8.630;2023-05-16T10:12:31;99481.66;;;20.24;100.00
22872;BME280;11603;44.910;8.630;2023-05-16T10:15:00;99477.59;;;20.05;100.00
22872;BME280;11603;44.910;8.630;2023-05-16T10:17:31;99488.84;;;20.40;100.00
22872;BME280;11603;44.910;8.630;2023-05-16T10:20:00;99485.53;;;20.29;100.00
22872;BME280;11603;44.910;8.630;2023-05-16T10:22:28;99500.56;;;20.17;100.00
22872;BME280;11603;44.910;8.630;2023-05-16T10:27:53;99493.44;;;20.39;100.00
22872;BME280;11603;44.910;8.630;2023-05-16T10:30:20;99497.63;;;20.42;100.00
22872;BME280;11603;44.910;8.630;2023-05-16T10:32:46;99492.41;;;20.40;100.00
22872;BME280;11603;44.910;8.630;2023-05-16T10:35:11;99478.44;;;20.43;100.00
22872;BME280;11603;44.910;8.630;2023-05-16T10:37:38;99489.59;;;20.34;100.00
22872;BME280;11603;44.910;8.630;2023-05-16T10:40:06;99498.53;;;20.19;100.00
22872;BME280;11603;44.910;8.630;2023-05-16T10:42:33;99504.72;;;20.28;100.00
22872;BME280;11603;44.910;8.630;2023-05-16T10:45:08;99504.53;;;20.29;100.00
22872;BME280;11603;44.910;8.630;2023-05-16T10:47:39;99499.53;;;20.18;100.00
22872;BME280;11603;44.910;8.630;2023-05-16T10:50:06;99502.00;;;20.05;100.00
22872;BME280;11603;44.910;8.630;2023-05-16T10:52:32;99494.53;;;20.07;100.00
22872;BME280;11603;44.910;8.630;2023-05-16T10:55:01;99503.97;;;19.97;100.00
22872;BME280;11603;44.910;8.630;2023-05-16T10:57:28;99502.66;;;19.93;100.00
22872;BME280;11603;44.910;8.630;2023-05-16T10:59:56;99502.81;;;19.68;100.00
22872;BME280;11603;44.910;8.630;2023-05-16T11:04:58;99515.56;;;19.68;100.00
22872;BME280;11603;44.910;8.630;2023-05-16T11:07:25;99504.56;;;19.61;100.00
22872;BME280;11603;44.910;8.630;2023-05-16T11:10:06;99521.72;;;19.54;100.00
22872;BME280;11603;44.910;8.630;2023-05-16T11:12:47;99510.16;;;19.60;100.00
22872;BME280;11603;44.910;8.630;2023-05-16T11:15:25;99517.28;;;19.61;100.00
22872;BME280;11603;44.910;8.630;2023-05-16T11:18:09;99513.09;;;19.50;100.00
22872;BME280;11603;44.910;8.630;2023-05-16T11:20:39;99525.56;;;19.28;100.00
22872;BME280;11603;44.910;8.630;2023-05-16T11:23:24;99530.41;;;19.10;100.00
22872;BME280;11603;44.910;8.630;2023-05-16T11:25:55;99530.63;;;18.92;100.00
22872;BME280;11603;44.910;8.630;2023-05-16T11:28:23;99523.22;;;18.70;100.00
22872;BME280;11603;44.910;8.630;2023-05-16T11:30:51;99542.22;;;18.62;100.00
22872;BME280;11603;44.910;8.630;2023-05-16T11:33:19;99538.66;;;18.61;100.00
22872;BME280;11603;44.910;8.630;2023-05-16T11:36:04;99544.09;;;18.61;100.00
22872;BME280;11603;44.910;8.630;2023-05-16T11:38:30;99535.97;;;18.61;100.00
22872;BME280;11603;44.910;8.630;2023-05-16T11:41:06;99539.19;;;18.57;100.00
22872;BME280;11603;44.910;8.630;2023-05-16T11:43:43;99544.09;;;18.61;100.00
22872;BME280;11603;44.910;8.630;2023-05-16T11:46:15;99534.94;;;18.63;100.00
22872;BME280;11603;44.910;8.630;2023-05-16T11:48:41;99532.38;;;18.77;100.00
22872;BME280;11603;44.910;8.630;2023-05-16T11:51:08;99527.13;;;18.76;100.00
22872;BME280;11603;44.910;8.630;2023-05-16T11:53:34;99519.69;;;18.70;100.00
22872;BME280;11603;44.910;8.630;2023-05-16T11:56:00;99519.16;;;18.82;100.00
22872;BME280;11603;44.910;8.630;2023-05-16T11:58:26;99526.16;;;19.08;100.00
22872;BME280;11603;44.910;8.630;2023-05-16T12:00:53;99533.94;;;19.11;100.00
22872;BME280;11603;44.910;8.630;2023-05-16T12:03:18;99524.22;;;19.24;100.00
22872;BME280;11603;44.910;8.630;2023-05-16T12:05:52;99527.88;;;19.39;100.00
22872;BME280;11603;44.910;8.630;2023-05-16T12:08:21;99531.97;;;19.35;100.00
22872;BME280;11603;44.910;8.630;2023-05-16T12:10:48;99529.84;;;19.54;100.00
22872;BME280;11603;44.910;8.630;2023-05-16T12:13:15;99527.34;;;19.52;100.00
22872;BME280;11603;44.910;8.630;2023-05-16T12:15:41;99524.44;;;19.54;100.00
22872;BME280;11603;44.910;8.630;2023-05-16T12:18:08;99532.56;;;19.54;100.00
22872;BME280;11603;44.910;8.630;2023-05-16T12:20:33;99529.63;;;19.63;100.00
22872;BME280;11603;44.910;8.630;2023-05-16T12:22:59;99528.38;;;19.74;100.00
22872;BME280;11603;44.910;8.630;2023-05-16T12:25:32;99527.59;;;19.65;100.00
22872;BME280;11603;44.910;8.630;2023-05-16T12:28:02;99526.16;;;19.77;100.00
22872;BME280;11603;44.910;8.630;2023-05-16T12:30:29;99529.41;;;19.96;100.00
22872;BME280;11603;44.910;8.630;2023-05-16T12:33:02;99533.41;;;20.08;100.00
22872;BME280;11603;44.910;8.630;2023-05-16T12:35:33;99540.56;;;20.23;100.00
22872;BME280;11603;44.910;8.630;2023-05-16T12:38:03;99542.06;;;20.26;100.00
22872;BME280;11603;44.910;8.630;2023-05-16T12:40:29;99533.78;;;20.42;100.00
22872;BME280;11603;44.910;8.630;2023-05-16T12:42:54;99545.53;;;20.57;98.26
22872;BME280;11603;44.910;8.630;2023-05-16T12:45:24;99534.50;;;20.73;95.48
22872;BME280;11603;44.910;8.630;2023-05-16T12:47:52;99533.59;;;20.96;93.64
22872;BME280;11603;44.910;8.630;2023-05-16T12:50:18;99533.47;;;20.89;93.31
22872;BME280;11603;44.910;8.630;2023-05-16T12:52:52;99537.59;;;20.70;95.46
22872;BME280;11603;44.910;8.630;2023-05-16T12:55:19;99538.22;;;20.43;91.08
22872;BME280;11603;44.910;8.630;2023-05-16T12:57:46;99532.53;;;20.30;92.80
22872;BME280;11603;44.910;8.630;2023-05-16T13:00:13;99540.75;;;20.22;95.93
22872;BME280;11603;44.910;8.630;2023-05-16T13:02:40;99539.53;;;20.24;98.12
22872;BME280;11603;44.910;8.630;2023-05-16T13:05:06;99536.88;;;20.16;99.55
22872;BME280;11603;44.910;8.630;2023-05-16T13:07:38;99535.38;;;20.14;100.00
22872;BME280;11603;44.910;8.630;2023-05-16T13:10:07;99538.22;;;19.98;99.34